FCBB/BZV METAR and TAF weather

Enter ICAO airport designator
Station Type Date Time Source
FCBB METAR 2022/06/27 18:00 UTC NOAA

FCBB 271800Z VRB02KT 7000 NSC 27/20 Q1013 NOSIG


Station Type Date Time Source
FCBB Decoded METAR 2022/06/27 18:00 UTC NOAA

Brazzaville / Maya-Maya, Congo, Republic of the (FCBB) 04-15S 015-15E 316M
Jun 27, 2022 - 02:00 PM EDT / 2022.06.27 1800 UTC
Wind: Variable at 2 MPH (2 KT):0
Visibility: 4 mile(s):0
Temperature: 80 F (27 C)
Dew Point: 68 F (20 C)
Relative Humidity: 65%
Pressure (altimeter): 29.91 in. Hg (1013 hPa)
ob: FCBB 271800Z VRB02KT 7000 NSC 27/20 Q1013 NOSIG
cycle: 18

Station Type Date Time Source
FCBB TAF 2022/06/27 18:20 UTC NOAA

TAF FCBB 271700Z 2718/2824 25004KT 8000 FEW020 PROB30 2806/2808 4000 BR

Example: see airport list